Crown College, Minnesota
Current Conditions -  °F | °C
As of 5:53 PM on Sunday 25 Jan 2015 (Local Time) from KFCM Reporting Station
Clear Clear  
Wind Chill: 24°   Ceiling: Unl
Heat Index: 24°   Visibility: 10mi
Dew Point: 12°   Wind: 0mph
Humidity: 60%   Direction: NA
Pressure: 30.04"   Gusts: NA
Location:  44.9069°N, 93.7466°W
Report Text: KFCM 252353Z 00000KT 10SM CLR M04/M11 A3004 RMK AO2 SLP185 T10441111 11022 21050 53005
Loading
Personal Weather Stations






























Interactive Weather Map New forecast layout! Learn more

10-Day Weather Forecast

Advertisements
Track Severe Weather on mobile